sensor_id;sensor_type;location;lat;lon;timestamp;P1;durP1;ratioP1;P2;durP2;ratioP2
14945;SDS011;7567;50.916;6.900;2022-09-21T00:02:25;6.77;;;2.70;;
14945;SDS011;7567;50.916;6.900;2022-09-21T00:04:50;6.67;;;2.77;;
14945;SDS011;7567;50.916;6.900;2022-09-21T00:07:16;6.00;;;2.75;;
14945;SDS011;7567;50.916;6.900;2022-09-21T00:09:42;6.93;;;2.60;;
14945;SDS011;7567;50.916;6.900;2022-09-21T00:12:08;7.80;;;2.60;;
14945;SDS011;7567;50.916;6.900;2022-09-21T00:14:34;10.27;;;3.50;;
14945;SDS011;7567;50.916;6.900;2022-09-21T00:17:00;6.17;;;3.00;;
14945;SDS011;7567;50.916;6.900;2022-09-21T00:19:26;9.40;;;3.07;;
14945;SDS011;7567;50.916;6.900;2022-09-21T00:21:53;5.60;;;2.90;;
14945;SDS011;7567;50.916;6.900;2022-09-21T00:24:20;5.27;;;3.03;;
14945;SDS011;7567;50.916;6.900;2022-09-21T00:26:46;7.93;;;3.37;;
14945;SDS011;7567;50.916;6.900;2022-09-21T00:29:12;5.93;;;2.93;;
14945;SDS011;7567;50.916;6.900;2022-09-21T00:31:38;7.93;;;3.27;;
14945;SDS011;7567;50.916;6.900;2022-09-21T00:34:04;7.20;;;3.10;;
14945;SDS011;7567;50.916;6.900;2022-09-21T00:36:32;9.98;;;3.50;;
14945;SDS011;7567;50.916;6.900;2022-09-21T00:38:58;5.67;;;2.93;;
14945;SDS011;7567;50.916;6.900;2022-09-21T00:41:27;6.70;;;3.50;;
14945;SDS011;7567;50.916;6.900;2022-09-21T00:46:52;9.07;;;3.60;;
14945;SDS011;7567;50.916;6.900;2022-09-21T00:49:20;8.30;;;3.57;;
14945;SDS011;7567;50.916;6.900;2022-09-21T00:51:47;5.38;;;3.33;;
14945;SDS011;7567;50.916;6.900;2022-09-21T00:54:19;7.73;;;3.67;;
14945;SDS011;7567;50.916;6.900;2022-09-21T00:56:57;6.70;;;3.40;;
14945;SDS011;7567;50.916;6.900;2022-09-21T00:59:27;6.30;;;3.67;;
14945;SDS011;7567;50.916;6.900;2022-09-21T01:01:58;9.77;;;3.80;;
14945;SDS011;7567;50.916;6.900;2022-09-21T01:04:25;10.43;;;3.60;;
14945;SDS011;7567;50.916;6.900;2022-09-21T01:06:53;6.57;;;3.07;;
14945;SDS011;7567;50.916;6.900;2022-09-21T01:09:20;7.13;;;3.30;;
14945;SDS011;7567;50.916;6.900;2022-09-21T01:11:53;9.30;;;3.77;;
14945;SDS011;7567;50.916;6.900;2022-09-21T01:14:26;9.13;;;3.70;;
14945;SDS011;7567;50.916;6.900;2022-09-21T01:25:40;11.13;;;3.80;;
14945;SDS011;7567;50.916;6.900;2022-09-21T01:30:59;7.37;;;3.63;;
14945;SDS011;7567;50.916;6.900;2022-09-21T01:33:31;9.30;;;3.60;;
14945;SDS011;7567;50.916;6.900;2022-09-21T01:36:14;8.60;;;4.20;;
14945;SDS011;7567;50.916;6.900;2022-09-21T01:38:47;8.33;;;3.77;;
14945;SDS011;7567;50.916;6.900;2022-09-21T01:41:15;8.53;;;3.40;;
14945;SDS011;7567;50.916;6.900;2022-09-21T01:43:46;7.03;;;3.80;;
14945;SDS011;7567;50.916;6.900;2022-09-21T01:46:20;8.07;;;3.73;;
14945;SDS011;7567;50.916;6.900;2022-09-21T01:48:51;6.77;;;3.43;;
14945;SDS011;7567;50.916;6.900;2022-09-21T01:51:20;6.73;;;3.97;;
14945;SDS011;7567;50.916;6.900;2022-09-21T01:53:55;12.67;;;4.40;;
14945;SDS011;7567;50.916;6.900;2022-09-21T01:59:15;8.93;;;4.60;;
14945;SDS011;7567;50.916;6.900;2022-09-21T02:01:44;7.27;;;4.10;;
14945;SDS011;7567;50.916;6.900;2022-09-21T02:04:15;6.37;;;4.20;;
14945;SDS011;7567;50.916;6.900;2022-09-21T02:06:43;9.03;;;4.13;;
14945;SDS011;7567;50.916;6.900;2022-09-21T02:09:10;6.33;;;4.33;;
14945;SDS011;7567;50.916;6.900;2022-09-21T02:11:37;7.53;;;3.73;;
14945;SDS011;7567;50.916;6.900;2022-09-21T02:14:06;9.57;;;4.50;;
14945;SDS011;7567;50.916;6.900;2022-09-21T02:16:40;7.40;;;4.50;;
14945;SDS011;7567;50.916;6.900;2022-09-21T02:19:19;6.67;;;3.90;;
14945;SDS011;7567;50.916;6.900;2022-09-21T02:25:21;6.67;;;4.00;;
14945;SDS011;7567;50.916;6.900;2022-09-21T02:30:48;7.83;;;4.23;;
14945;SDS011;7567;50.916;6.900;2022-09-21T02:33:23;6.10;;;3.93;;
14945;SDS011;7567;50.916;6.900;2022-09-21T02:38:34;6.37;;;4.10;;
14945;SDS011;7567;50.916;6.900;2022-09-21T02:41:28;8.47;;;4.20;;
14945;SDS011;7567;50.916;6.900;2022-09-21T02:49:17;6.00;;;4.13;;
14945;SDS011;7567;50.916;6.900;2022-09-21T02:51:49;8.30;;;4.03;;
14945;SDS011;7567;50.916;6.900;2022-09-21T02:54:19;6.73;;;4.20;;
14945;SDS011;7567;50.916;6.900;2022-09-21T02:56:50;7.37;;;4.47;;
14945;SDS011;7567;50.916;6.900;2022-09-21T02:59:18;7.13;;;4.10;;
14945;SDS011;7567;50.916;6.900;2022-09-21T03:01:46;5.63;;;3.97;;
14945;SDS011;7567;50.916;6.900;2022-09-21T03:04:12;8.13;;;4.70;;
14945;SDS011;7567;50.916;6.900;2022-09-21T03:06:38;7.10;;;4.30;;
14945;SDS011;7567;50.916;6.900;2022-09-21T03:09:05;15.17;;;5.17;;
14945;SDS011;7567;50.916;6.900;2022-09-21T03:11:31;7.30;;;4.23;;
14945;SDS011;7567;50.916;6.900;2022-09-21T03:13:58;7.23;;;4.37;;
14945;SDS011;7567;50.916;6.900;2022-09-21T03:16:24;7.63;;;4.27;;
14945;SDS011;7567;50.916;6.900;2022-09-21T03:18:50;6.97;;;3.77;;
14945;SDS011;7567;50.916;6.900;2022-09-21T03:21:16;7.20;;;4.10;;
14945;SDS011;7567;50.916;6.900;2022-09-21T03:23:42;7.40;;;4.50;;
14945;SDS011;7567;50.916;6.900;2022-09-21T03:26:08;9.67;;;4.77;;
14945;SDS011;7567;50.916;6.900;2022-09-21T03:28:34;7.40;;;4.43;;
14945;SDS011;7567;50.916;6.900;2022-09-21T03:31:00;8.83;;;3.80;;
14945;SDS011;7567;50.916;6.900;2022-09-21T03:33:26;6.13;;;4.07;;
14945;SDS011;7567;50.916;6.900;2022-09-21T03:35:52;7.37;;;4.00;;
14945;SDS011;7567;50.916;6.900;2022-09-21T03:38:18;6.40;;;4.07;;
14945;SDS011;7567;50.916;6.900;2022-09-21T03:40:48;6.90;;;4.10;;
14945;SDS011;7567;50.916;6.900;2022-09-21T03:43:15;7.37;;;4.37;;
14945;SDS011;7567;50.916;6.900;2022-09-21T03:45:42;7.77;;;4.73;;
14945;SDS011;7567;50.916;6.900;2022-09-21T03:48:09;8.67;;;4.73;;
14945;SDS011;7567;50.916;6.900;2022-09-21T03:50:36;8.23;;;4.33;;
14945;SDS011;7567;50.916;6.900;2022-09-21T03:53:02;5.13;;;3.87;;
14945;SDS011;7567;50.916;6.900;2022-09-21T03:55:29;9.60;;;4.27;;
14945;SDS011;7567;50.916;6.900;2022-09-21T03:57:57;8.30;;;4.30;;
14945;SDS011;7567;50.916;6.900;2022-09-21T04:00:23;4.30;;;3.50;;
14945;SDS011;7567;50.916;6.900;2022-09-21T04:02:49;7.20;;;4.27;;
14945;SDS011;7567;50.916;6.900;2022-09-21T04:05:15;5.87;;;4.17;;
14945;SDS011;7567;50.916;6.900;2022-09-21T04:07:42;6.70;;;3.70;;
14945;SDS011;7567;50.916;6.900;2022-09-21T04:10:13;6.33;;;4.30;;
14945;SDS011;7567;50.916;6.900;2022-09-21T04:12:41;6.13;;;4.10;;
14945;SDS011;7567;50.916;6.900;2022-09-21T04:15:09;6.03;;;3.90;;
14945;SDS011;7567;50.916;6.900;2022-09-21T04:17:39;5.80;;;3.77;;
14945;SDS011;7567;50.916;6.900;2022-09-21T04:20:06;5.73;;;3.77;;
14945;SDS011;7567;50.916;6.900;2022-09-21T04:22:33;7.73;;;3.73;;
14945;SDS011;7567;50.916;6.900;2022-09-21T04:25:01;6.77;;;4.23;;
14945;SDS011;7567;50.916;6.900;2022-09-21T04:27:29;5.53;;;3.90;;
14945;SDS011;7567;50.916;6.900;2022-09-21T04:29:56;8.77;;;4.20;;
14945;SDS011;7567;50.916;6.900;2022-09-21T04:32:22;10.90;;;4.37;;
14945;SDS011;7567;50.916;6.900;2022-09-21T04:34:48;7.57;;;3.80;;
14945;SDS011;7567;50.916;6.900;2022-09-21T04:37:14;5.23;;;3.90;;
14945;SDS011;7567;50.916;6.900;2022-09-21T04:39:40;4.90;;;4.10;;
14945;SDS011;7567;50.916;6.900;2022-09-21T04:42:06;8.30;;;4.73;;
14945;SDS011;7567;50.916;6.900;2022-09-21T04:44:32;6.73;;;3.97;;
14945;SDS011;7567;50.916;6.900;2022-09-21T04:46:57;6.33;;;4.50;;
14945;SDS011;7567;50.916;6.900;2022-09-21T04:49:24;6.13;;;4.10;;
14945;SDS011;7567;50.916;6.900;2022-09-21T04:51:50;6.97;;;4.40;;
14945;SDS011;7567;50.916;6.900;2022-09-21T04:54:16;6.83;;;4.57;;
14945;SDS011;7567;50.916;6.900;2022-09-21T04:56:42;6.10;;;4.20;;
14945;SDS011;7567;50.916;6.900;2022-09-21T04:59:08;6.07;;;4.80;;
14945;SDS011;7567;50.916;6.900;2022-09-21T05:01:34;6.50;;;4.10;;
14945;SDS011;7567;50.916;6.900;2022-09-21T05:04:00;7.30;;;4.50;;
14945;SDS011;7567;50.916;6.900;2022-09-21T05:06:30;8.13;;;4.60;;
14945;SDS011;7567;50.916;6.900;2022-09-21T05:08:57;8.27;;;4.70;;
14945;SDS011;7567;50.916;6.900;2022-09-21T05:11:41;8.50;;;5.00;;
14945;SDS011;7567;50.916;6.900;2022-09-21T05:14:08;5.10;;;4.37;;
14945;SDS011;7567;50.916;6.900;2022-09-21T05:16:35;5.13;;;4.70;;
14945;SDS011;7567;50.916;6.900;2022-09-21T05:19:01;4.87;;;4.33;;
14945;SDS011;7567;50.916;6.900;2022-09-21T05:21:28;26.67;;;5.63;;
14945;SDS011;7567;50.916;6.900;2022-09-21T05:23:56;8.23;;;5.10;;
14945;SDS011;7567;50.916;6.900;2022-09-21T05:26:22;9.30;;;6.40;;
14945;SDS011;7567;50.916;6.900;2022-09-21T05:28:49;7.37;;;6.40;;
14945;SDS011;7567;50.916;6.900;2022-09-21T05:33:43;10.50;;;7.93;;
14945;SDS011;7567;50.916;6.900;2022-09-21T05:39:24;10.87;;;8.53;;
14945;SDS011;7567;50.916;6.900;2022-09-21T05:41:50;9.23;;;8.23;;
14945;SDS011;7567;50.916;6.900;2022-09-21T05:44:17;8.90;;;8.00;;
14945;SDS011;7567;50.916;6.900;2022-09-21T06:05:24;10.13;;;9.13;;
14945;SDS011;7567;50.916;6.900;2022-09-21T06:07:50;12.13;;;9.17;;
14945;SDS011;7567;50.916;6.900;2022-09-21T06:10:16;21.23;;;10.27;;
14945;SDS011;7567;50.916;6.900;2022-09-21T06:12:42;45.60;;;10.63;;
14945;SDS011;7567;50.916;6.900;2022-09-21T06:15:10;11.53;;;10.33;;
14945;SDS011;7567;50.916;6.900;2022-09-21T06:17:38;11.63;;;10.43;;
14945;SDS011;7567;50.916;6.900;2022-09-21T06:20:04;19.90;;;10.70;;
14945;SDS011;7567;50.916;6.900;2022-09-21T06:22:31;17.53;;;12.43;;
14945;SDS011;7567;50.916;6.900;2022-09-21T06:24:58;18.47;;;14.30;;
14945;SDS011;7567;50.916;6.900;2022-09-21T06:27:24;16.07;;;14.07;;
14945;SDS011;7567;50.916;6.900;2022-09-21T06:29:52;18.67;;;14.43;;
14945;SDS011;7567;50.916;6.900;2022-09-21T06:32:18;15.83;;;13.23;;
14945;SDS011;7567;50.916;6.900;2022-09-21T06:34:45;15.73;;;14.13;;
14945;SDS011;7567;50.916;6.900;2022-09-21T06:37:11;21.37;;;14.50;;
14945;SDS011;7567;50.916;6.900;2022-09-21T06:39:37;51.23;;;15.33;;
14945;SDS011;7567;50.916;6.900;2022-09-21T06:42:03;20.87;;;16.60;;
14945;SDS011;7567;50.916;6.900;2022-09-21T06:44:29;23.90;;;16.17;;
14945;SDS011;7567;50.916;6.900;2022-09-21T06:46:55;25.10;;;19.40;;
14945;SDS011;7567;50.916;6.900;2022-09-21T06:49:21;26.33;;;19.00;;
14945;SDS011;7567;50.916;6.900;2022-09-21T06:51:47;24.37;;;18.80;;
14945;SDS011;7567;50.916;6.900;2022-09-21T06:54:13;22.20;;;17.40;;
14945;SDS011;7567;50.916;6.900;2022-09-21T06:56:41;21.33;;;18.47;;
14945;SDS011;7567;50.916;6.900;2022-09-21T06:59:08;20.97;;;18.77;;
14945;SDS011;7567;50.916;6.900;2022-09-21T07:01:34;23.30;;;19.57;;
14945;SDS011;7567;50.916;6.900;2022-09-21T07:04:00;28.27;;;20.73;;
14945;SDS011;7567;50.916;6.900;2022-09-21T07:06:26;30.60;;;22.27;;
14945;SDS011;7567;50.916;6.900;2022-09-21T07:08:53;32.10;;;24.63;;
14945;SDS011;7567;50.916;6.900;2022-09-21T07:11:19;73.30;;;26.40;;
14945;SDS011;7567;50.916;6.900;2022-09-21T07:13:48;34.90;;;24.40;;
14945;SDS011;7567;50.916;6.900;2022-09-21T07:16:14;34.23;;;27.13;;
14945;SDS011;7567;50.916;6.900;2022-09-21T07:18:41;34.33;;;26.00;;
14945;SDS011;7567;50.916;6.900;2022-09-21T07:21:08;52.17;;;27.53;;
14945;SDS011;7567;50.916;6.900;2022-09-21T07:23:35;40.27;;;26.03;;
14945;SDS011;7567;50.916;6.900;2022-09-21T07:26:02;32.03;;;25.52;;
14945;SDS011;7567;50.916;6.900;2022-09-21T07:28:33;38.17;;;26.60;;
14945;SDS011;7567;50.916;6.900;2022-09-21T07:31:12;34.47;;;26.30;;
14945;SDS011;7567;50.916;6.900;2022-09-21T07:33:43;55.50;;;28.63;;
14945;SDS011;7567;50.916;6.900;2022-09-21T07:36:13;34.53;;;27.37;;
14945;SDS011;7567;50.916;6.900;2022-09-21T07:38:41;48.93;;;27.63;;
14945;SDS011;7567;50.916;6.900;2022-09-21T07:41:09;34.45;;;25.48;;
14945;SDS011;7567;50.916;6.900;2022-09-21T07:43:37;36.53;;;26.17;;
14945;SDS011;7567;50.916;6.900;2022-09-21T07:46:07;35.63;;;28.07;;
14945;SDS011;7567;50.916;6.900;2022-09-21T07:48:35;32.00;;;25.50;;
14945;SDS011;7567;50.916;6.900;2022-09-21T07:51:11;34.10;;;25.55;;
14945;SDS011;7567;50.916;6.900;2022-09-21T07:53:40;37.08;;;28.58;;
14945;SDS011;7567;50.916;6.900;2022-09-21T07:56:27;37.95;;;26.83;;
14945;SDS011;7567;50.916;6.900;2022-09-21T07:59:05;76.85;;;30.58;;
14945;SDS011;7567;50.916;6.900;2022-09-21T08:01:37;37.85;;;29.52;;
14945;SDS011;7567;50.916;6.900;2022-09-21T08:04:06;42.88;;;28.73;;
14945;SDS011;7567;50.916;6.900;2022-09-21T08:06:35;41.42;;;27.52;;
14945;SDS011;7567;50.916;6.900;2022-09-21T08:09:04;32.08;;;25.52;;
14945;SDS011;7567;50.916;6.900;2022-09-21T08:11:31;36.88;;;28.98;;
14945;SDS011;7567;50.916;6.900;2022-09-21T08:13:58;40.03;;;28.67;;
14945;SDS011;7567;50.916;6.900;2022-09-21T08:16:26;38.75;;;29.88;;
14945;SDS011;7567;50.916;6.900;2022-09-21T08:18:53;42.10;;;30.90;;
14945;SDS011;7567;50.916;6.900;2022-09-21T08:21:19;42.10;;;31.13;;
14945;SDS011;7567;50.916;6.900;2022-09-21T08:23:46;42.08;;;31.02;;
14945;SDS011;7567;50.916;6.900;2022-09-21T08:26:14;36.03;;;29.30;;
14945;SDS011;7567;50.916;6.900;2022-09-21T08:28:43;37.17;;;30.90;;
14945;SDS011;7567;50.916;6.900;2022-09-21T08:31:14;34.10;;;30.00;;
14945;SDS011;7567;50.916;6.900;2022-09-21T08:33:42;34.75;;;28.85;;
14945;SDS011;7567;50.916;6.900;2022-09-21T08:36:08;32.85;;;29.40;;
14945;SDS011;7567;50.916;6.900;2022-09-21T08:38:35;32.47;;;28.85;;
14945;SDS011;7567;50.916;6.900;2022-09-21T08:41:10;34.15;;;29.45;;
14945;SDS011;7567;50.916;6.900;2022-09-21T08:43:50;32.10;;;28.55;;
14945;SDS011;7567;50.916;6.900;2022-09-21T08:46:24;33.45;;;29.65;;
14945;SDS011;7567;50.916;6.900;2022-09-21T08:48:54;32.38;;;28.30;;
14945;SDS011;7567;50.916;6.900;2022-09-21T08:51:30;35.35;;;30.88;;
14945;SDS011;7567;50.916;6.900;2022-09-21T08:54:02;31.55;;;27.08;;
14945;SDS011;7567;50.916;6.900;2022-09-21T08:56:39;31.90;;;28.67;;
14945;SDS011;7567;50.916;6.900;2022-09-21T08:59:09;31.73;;;27.85;;
14945;SDS011;7567;50.916;6.900;2022-09-21T09:01:46;32.28;;;28.92;;
14945;SDS011;7567;50.916;6.900;2022-09-21T09:10:13;25.35;;;22.75;;
14945;SDS011;7567;50.916;6.900;2022-09-21T09:21:04;22.73;;;20.42;;
14945;SDS011;7567;50.916;6.900;2022-09-21T09:24:18;20.95;;;18.85;;
14945;SDS011;7567;50.916;6.900;2022-09-21T09:26:33;21.50;;;19.40;;
14945;SDS011;7567;50.916;6.900;2022-09-21T09:31:42;20.15;;;17.90;;
14945;SDS011;7567;50.916;6.900;2022-09-21T09:36:55;18.67;;;16.77;;
14945;SDS011;7567;50.916;6.900;2022-09-21T09:39:23;18.13;;;16.23;;
14945;SDS011;7567;50.916;6.900;2022-09-21T09:50:31;12.57;;;11.27;;
14945;SDS011;7567;50.916;6.900;2022-09-21T09:53:04;13.95;;;10.38;;
14945;SDS011;7567;50.916;6.900;2022-09-21T09:55:41;12.82;;;9.38;;
14945;SDS011;7567;50.916;6.900;2022-09-21T09:58:19;8.88;;;7.97;;
14945;SDS011;7567;50.916;6.900;2022-09-21T10:00:52;10.50;;;8.23;;
14945;SDS011;7567;50.916;6.900;2022-09-21T10:03:23;12.70;;;7.85;;
14945;SDS011;7567;50.916;6.900;2022-09-21T10:05:50;8.70;;;7.80;;
14945;SDS011;7567;50.916;6.900;2022-09-21T10:11:14;10.82;;;7.47;;
14945;SDS011;7567;50.916;6.900;2022-09-21T10:13:42;9.30;;;7.60;;
14945;SDS011;7567;50.916;6.900;2022-09-21T10:16:19;8.55;;;6.65;;
14945;SDS011;7567;50.916;6.900;2022-09-21T10:21:18;7.13;;;5.32;;
14945;SDS011;7567;50.916;6.900;2022-09-21T10:26:29;6.80;;;5.78;;
14945;SDS011;7567;50.916;6.900;2022-09-21T10:28:58;9.40;;;5.90;;
14945;SDS011;7567;50.916;6.900;2022-09-21T10:32:00;7.97;;;4.80;;
14945;SDS011;7567;50.916;6.900;2022-09-21T10:34:29;7.82;;;4.60;;
14945;SDS011;7567;50.916;6.900;2022-09-21T10:36:57;5.93;;;4.10;;
14945;SDS011;7567;50.916;6.900;2022-09-21T10:42:03;5.38;;;3.53;;
14945;SDS011;7567;50.916;6.900;2022-09-21T10:44:43;6.82;;;3.50;;
14945;SDS011;7567;50.916;6.900;2022-09-21T10:47:21;6.82;;;3.83;;
14945;SDS011;7567;50.916;6.900;2022-09-21T10:49:59;9.32;;;3.15;;
14945;SDS011;7567;50.916;6.900;2022-09-21T10:52:32;8.32;;;2.80;;
14945;SDS011;7567;50.916;6.900;2022-09-21T10:55:02;6.20;;;2.47;;
14945;SDS011;7567;50.916;6.900;2022-09-21T10:57:30;6.95;;;2.78;;
14945;SDS011;7567;50.916;6.900;2022-09-21T11:00:10;4.10;;;2.65;;
14945;SDS011;7567;50.916;6.900;2022-09-21T11:03:00;5.13;;;1.80;;
14945;SDS011;7567;50.916;6.900;2022-09-21T11:05:47;6.43;;;1.90;;
14945;SDS011;7567;50.916;6.900;2022-09-21T11:09:01;3.95;;;1.70;;
14945;SDS011;7567;50.916;6.900;2022-09-21T11:13:59;3.05;;;1.80;;
14945;SDS011;7567;50.916;6.900;2022-09-21T11:28:37;4.07;;;1.20;;
14945;SDS011;7567;50.916;6.900;2022-09-21T11:45:16;6.72;;;1.70;;
14945;SDS011;7567;50.916;6.900;2022-09-21T11:50:25;2.97;;;1.20;;
14945;SDS011;7567;50.916;6.900;2022-09-21T11:53:35;6.18;;;1.67;;
14945;SDS011;7567;50.916;6.900;2022-09-21T12:02:32;4.72;;;1.75;;
14945;SDS011;7567;50.916;6.900;2022-09-21T12:17:03;2.63;;;1.20;;
14945;SDS011;7567;50.916;6.900;2022-09-21T12:22:23;5.10;;;1.63;;
14945;SDS011;7567;50.916;6.900;2022-09-21T12:25:01;2.72;;;1.45;;
14945;SDS011;7567;50.916;6.900;2022-09-21T12:27:52;4.72;;;1.42;;
14945;SDS011;7567;50.916;6.900;2022-09-21T12:30:25;4.07;;;1.63;;
14945;SDS011;7567;50.916;6.900;2022-09-21T12:32:59;3.53;;;1.60;;
14945;SDS011;7567;50.916;6.900;2022-09-21T12:35:43;4.50;;;1.88;;
14945;SDS011;7567;50.916;6.900;2022-09-21T12:43:46;2.28;;;1.40;;
14945;SDS011;7567;50.916;6.900;2022-09-21T12:46:25;5.28;;;1.67;;
14945;SDS011;7567;50.916;6.900;2022-09-21T12:48:58;3.28;;;1.50;;
14945;SDS011;7567;50.916;6.900;2022-09-21T12:54:00;2.85;;;1.52;;
14945;SDS011;7567;50.916;6.900;2022-09-21T12:57:00;3.70;;;1.27;;
14945;SDS011;7567;50.916;6.900;2022-09-21T13:00:01;2.65;;;1.20;;
14945;SDS011;7567;50.916;6.900;2022-09-21T13:02:43;2.85;;;1.05;;
14945;SDS011;7567;50.916;6.900;2022-09-21T13:07:58;5.03;;;1.58;;
14945;SDS011;7567;50.916;6.900;2022-09-21T13:10:37;4.25;;;1.33;;
14945;SDS011;7567;50.916;6.900;2022-09-21T13:13:23;3.33;;;1.55;;
14945;SDS011;7567;50.916;6.900;2022-09-21T13:15:52;2.58;;;1.25;;
14945;SDS011;7567;50.916;6.900;2022-09-21T13:18:30;3.88;;;1.48;;
14945;SDS011;7567;50.916;6.900;2022-09-21T13:21:15;3.28;;;1.13;;
14945;SDS011;7567;50.916;6.900;2022-09-21T13:23:57;1.73;;;0.90;;
14945;SDS011;7567;50.916;6.900;2022-09-21T13:29:23;2.38;;;1.30;;
14945;SDS011;7567;50.916;6.900;2022-09-21T13:34:32;1.98;;;1.20;;
14945;SDS011;7567;50.916;6.900;2022-09-21T13:39:44;1.73;;;1.00;;
14945;SDS011;7567;50.916;6.900;2022-09-21T13:45:05;4.55;;;1.33;;
14945;SDS011;7567;50.916;6.900;2022-09-21T13:47:44;3.10;;;0.98;;
14945;SDS011;7567;50.916;6.900;2022-09-21T13:50:26;2.15;;;1.20;;
14945;SDS011;7567;50.916;6.900;2022-09-21T13:53:22;2.25;;;0.88;;
14945;SDS011;7567;50.916;6.900;2022-09-21T13:56:06;5.20;;;1.15;;
14945;SDS011;7567;50.916;6.900;2022-09-21T13:58:43;2.83;;;1.20;;
14945;SDS011;7567;50.916;6.900;2022-09-21T14:01:12;4.18;;;1.10;;
14945;SDS011;7567;50.916;6.900;2022-09-21T14:03:49;3.67;;;1.00;;
14945;SDS011;7567;50.916;6.900;2022-09-21T14:06:22;2.33;;;1.05;;
14945;SDS011;7567;50.916;6.900;2022-09-21T14:08:56;3.55;;;1.10;;
14945;SDS011;7567;50.916;6.900;2022-09-21T14:11:29;2.13;;;1.10;;
14945;SDS011;7567;50.916;6.900;2022-09-21T14:29:53;2.78;;;1.02;;
14945;SDS011;7567;50.916;6.900;2022-09-21T14:32:32;2.17;;;1.02;;
14945;SDS011;7567;50.916;6.900;2022-09-21T14:35:32;2.38;;;0.85;;
14945;SDS011;7567;50.916;6.900;2022-09-21T14:38:03;2.17;;;1.33;;
14945;SDS011;7567;50.916;6.900;2022-09-21T14:40:48;2.85;;;0.98;;
14945;SDS011;7567;50.916;6.900;2022-09-21T14:43:22;2.50;;;0.98;;
14945;SDS011;7567;50.916;6.900;2022-09-21T14:46:01;2.35;;;1.30;;
14945;SDS011;7567;50.916;6.900;2022-09-21T14:48:54;5.30;;;0.80;;
14945;SDS011;7567;50.916;6.900;2022-09-21T14:51:53;4.25;;;1.40;;
14945;SDS011;7567;50.916;6.900;2022-09-21T14:54:47;4.45;;;1.50;;
14945;SDS011;7567;50.916;6.900;2022-09-21T15:00:42;3.55;;;1.40;;
14945;SDS011;7567;50.916;6.900;2022-09-21T15:08:55;4.80;;;1.55;;
14945;SDS011;7567;50.916;6.900;2022-09-21T15:12:27;4.38;;;1.40;;
14945;SDS011;7567;50.916;6.900;2022-09-21T15:15:12;3.95;;;1.25;;
14945;SDS011;7567;50.916;6.900;2022-09-21T15:18:00;2.72;;;1.27;;
14945;SDS011;7567;50.916;6.900;2022-09-21T15:20:28;4.10;;;1.30;;
14945;SDS011;7567;50.916;6.900;2022-09-21T15:22:56;6.10;;;1.85;;
14945;SDS011;7567;50.916;6.900;2022-09-21T15:25:24;3.08;;;1.30;;
14945;SDS011;7567;50.916;6.900;2022-09-21T15:27:55;4.40;;;1.55;;
14945;SDS011;7567;50.916;6.900;2022-09-21T15:30:26;3.25;;;1.33;;
14945;SDS011;7567;50.916;6.900;2022-09-21T15:33:01;3.55;;;1.30;;
14945;SDS011;7567;50.916;6.900;2022-09-21T15:35:28;3.35;;;1.75;;
14945;SDS011;7567;50.916;6.900;2022-09-21T15:37:57;6.03;;;1.55;;
14945;SDS011;7567;50.916;6.900;2022-09-21T15:40:29;5.07;;;1.75;;
14945;SDS011;7567;50.916;6.900;2022-09-21T15:48:09;2.75;;;1.33;;
14945;SDS011;7567;50.916;6.900;2022-09-21T15:50:38;4.38;;;1.50;;
14945;SDS011;7567;50.916;6.900;2022-09-21T15:53:11;3.03;;;1.40;;
14945;SDS011;7567;50.916;6.900;2022-09-21T15:55:46;2.42;;;1.30;;
14945;SDS011;7567;50.916;6.900;2022-09-21T15:58:46;3.22;;;1.30;;
14945;SDS011;7567;50.916;6.900;2022-09-21T16:01:10;3.33;;;1.30;;
14945;SDS011;7567;50.916;6.900;2022-09-21T16:03:39;1.58;;;1.10;;
14945;SDS011;7567;50.916;6.900;2022-09-21T16:06:25;2.55;;;1.38;;
14945;SDS011;7567;50.916;6.900;2022-09-21T16:08:53;2.53;;;1.05;;
14945;SDS011;7567;50.916;6.900;2022-09-21T16:13:59;3.90;;;1.52;;
14945;SDS011;7567;50.916;6.900;2022-09-21T16:22:19;2.67;;;1.40;;
14945;SDS011;7567;50.916;6.900;2022-09-21T16:24:55;4.03;;;1.65;;
14945;SDS011;7567;50.916;6.900;2022-09-21T16:27:25;4.30;;;1.42;;
14945;SDS011;7567;50.916;6.900;2022-09-21T16:29:53;2.22;;;1.15;;
14945;SDS011;7567;50.916;6.900;2022-09-21T16:32:27;3.55;;;1.35;;
14945;SDS011;7567;50.916;6.900;2022-09-21T16:37:58;2.65;;;1.63;;
14945;SDS011;7567;50.916;6.900;2022-09-21T16:40:25;1.73;;;1.27;;
14945;SDS011;7567;50.916;6.900;2022-09-21T16:42:53;4.75;;;1.80;;
14945;SDS011;7567;50.916;6.900;2022-09-21T16:45:24;13.40;;;1.85;;
14945;SDS011;7567;50.916;6.900;2022-09-21T16:47:58;4.93;;;1.50;;
14945;SDS011;7567;50.916;6.900;2022-09-21T16:50:24;2.70;;;1.33;;
14945;SDS011;7567;50.916;6.900;2022-09-21T16:52:50;2.17;;;1.10;;
14945;SDS011;7567;50.916;6.900;2022-09-21T16:55:19;2.30;;;1.00;;
14945;SDS011;7567;50.916;6.900;2022-09-21T16:57:46;3.45;;;1.20;;
14945;SDS011;7567;50.916;6.900;2022-09-21T17:00:13;2.13;;;1.20;;
14945;SDS011;7567;50.916;6.900;2022-09-21T17:02:46;2.50;;;1.30;;
14945;SDS011;7567;50.916;6.900;2022-09-21T17:05:13;2.35;;;1.30;;
14945;SDS011;7567;50.916;6.900;2022-09-21T17:07:52;3.38;;;1.35;;
14945;SDS011;7567;50.916;6.900;2022-09-21T17:10:20;2.38;;;1.10;;
14945;SDS011;7567;50.916;6.900;2022-09-21T17:12:53;3.00;;;1.40;;
14945;SDS011;7567;50.916;6.900;2022-09-21T17:15:20;3.80;;;1.15;;
14945;SDS011;7567;50.916;6.900;2022-09-21T17:17:47;3.95;;;1.58;;
14945;SDS011;7567;50.916;6.900;2022-09-21T17:20:16;3.63;;;1.40;;
14945;SDS011;7567;50.916;6.900;2022-09-21T17:22:47;1.75;;;1.25;;
14945;SDS011;7567;50.916;6.900;2022-09-21T17:25:13;2.22;;;1.40;;
14945;SDS011;7567;50.916;6.900;2022-09-21T17:27:39;3.90;;;1.33;;
14945;SDS011;7567;50.916;6.900;2022-09-21T17:30:10;3.13;;;1.60;;
14945;SDS011;7567;50.916;6.900;2022-09-21T17:32:37;7.57;;;1.77;;
14945;SDS011;7567;50.916;6.900;2022-09-21T17:37:46;4.30;;;1.60;;
14945;SDS011;7567;50.916;6.900;2022-09-21T17:40:12;3.50;;;1.50;;
14945;SDS011;7567;50.916;6.900;2022-09-21T17:42:40;3.22;;;1.80;;
14945;SDS011;7567;50.916;6.900;2022-09-21T17:47:39;4.05;;;2.63;;
14945;SDS011;7567;50.916;6.900;2022-09-21T17:52:38;6.97;;;4.82;;
14945;SDS011;7567;50.916;6.900;2022-09-21T17:55:23;7.78;;;6.00;;
14945;SDS011;7567;50.916;6.900;2022-09-21T17:58:02;8.52;;;6.10;;
14945;SDS011;7567;50.916;6.900;2022-09-21T18:03:22;8.50;;;5.90;;
14945;SDS011;7567;50.916;6.900;2022-09-21T18:05:50;10.18;;;5.07;;
14945;SDS011;7567;50.916;6.900;2022-09-21T18:08:32;6.22;;;4.43;;
14945;SDS011;7567;50.916;6.900;2022-09-21T18:14:08;4.15;;;3.47;;
14945;SDS011;7567;50.916;6.900;2022-09-21T18:24:48;4.00;;;2.28;;
14945;SDS011;7567;50.916;6.900;2022-09-21T18:27:16;6.13;;;2.38;;
14945;SDS011;7567;50.916;6.900;2022-09-21T18:29:44;3.83;;;2.53;;
14945;SDS011;7567;50.916;6.900;2022-09-21T18:45:36;6.22;;;2.47;;
14945;SDS011;7567;50.916;6.900;2022-09-21T18:56:13;4.50;;;2.05;;
14945;SDS011;7567;50.916;6.900;2022-09-21T18:58:40;3.17;;;2.40;;
14945;SDS011;7567;50.916;6.900;2022-09-21T19:01:12;5.30;;;2.30;;
14945;SDS011;7567;50.916;6.900;2022-09-21T19:03:40;3.95;;;2.05;;
14945;SDS011;7567;50.916;6.900;2022-09-21T19:06:19;3.90;;;2.25;;
14945;SDS011;7567;50.916;6.900;2022-09-21T19:11:41;4.47;;;2.38;;
14945;SDS011;7567;50.916;6.900;2022-09-21T19:22:22;7.18;;;3.88;;
14945;SDS011;7567;50.916;6.900;2022-09-21T19:24:59;5.40;;;4.60;;
14945;SDS011;7567;50.916;6.900;2022-09-21T19:27:37;9.00;;;5.85;;
14945;SDS011;7567;50.916;6.900;2022-09-21T19:30:08;8.80;;;5.72;;
14945;SDS011;7567;50.916;6.900;2022-09-21T19:32:48;7.78;;;5.40;;
14945;SDS011;7567;50.916;6.900;2022-09-21T19:35:24;6.75;;;5.22;;
14945;SDS011;7567;50.916;6.900;2022-09-21T19:37:58;6.97;;;4.53;;
14945;SDS011;7567;50.916;6.900;2022-09-21T19:40:26;9.32;;;5.03;;
14945;SDS011;7567;50.916;6.900;2022-09-21T19:48:11;6.22;;;4.32;;
14945;SDS011;7567;50.916;6.900;2022-09-21T19:50:48;6.18;;;3.90;;
14945;SDS011;7567;50.916;6.900;2022-09-21T19:53:21;4.75;;;3.53;;